createdAt,value
2019-02-25T00:01:48.829Z,84.20
2019-02-25T00:06:05.246Z,84.50
2019-02-25T00:10:21.853Z,84.80
2019-02-25T00:14:38.270Z,84.00
2019-02-25T00:18:55.146Z,84.10
2019-02-25T00:23:11.706Z,84.20
2019-02-25T00:27:28.122Z,84.30
2019-02-25T00:31:44.844Z,85.40
2019-02-25T00:36:01.495Z,84.70
2019-02-25T00:40:18.171Z,84.70
2019-02-25T00:44:34.619Z,84.60
2019-02-25T00:48:51.262Z,85.00
2019-02-25T00:53:07.853Z,84.80
2019-02-25T00:57:24.380Z,84.70
2019-02-25T01:01:41.079Z,84.50
2019-02-25T01:05:57.645Z,84.30
2019-02-25T01:10:15.983Z,84.60
2019-02-25T01:14:32.529Z,85.10
2019-02-25T01:18:49.394Z,84.90
2019-02-25T01:23:08.532Z,85.10
2019-02-25T01:27:24.974Z,85.00
2019-02-25T01:31:41.965Z,85.10
2019-02-25T01:35:59.375Z,84.90
2019-02-25T01:40:15.885Z,84.90
2019-02-25T01:44:32.383Z,84.90
2019-02-25T01:48:48.870Z,84.80
2019-02-25T01:53:05.343Z,84.70
2019-02-25T01:57:21.821Z,84.70
2019-02-25T02:01:38.338Z,85.00
2019-02-25T02:05:55.199Z,85.30
2019-02-25T02:10:13.294Z,86.30
2019-02-25T02:14:29.765Z,85.70
2019-02-25T02:18:46.237Z,86.00
2019-02-25T02:23:02.755Z,86.20
2019-02-25T02:27:19.556Z,86.50
2019-02-25T02:31:36.003Z,86.70
2019-02-25T02:35:52.831Z,86.90
2019-02-25T02:40:10.710Z,87.10
2019-02-25T02:44:27.487Z,87.30
2019-02-25T02:48:50.819Z,87.50
2019-02-25T02:53:07.668Z,88.00
2019-02-25T02:57:24.082Z,88.10
2019-02-25T03:01:40.539Z,88.30
2019-02-25T03:05:57.032Z,88.20
2019-02-25T03:10:15.750Z,88.40
2019-02-25T03:14:32.513Z,88.30
2019-02-25T03:18:48.932Z,88.50
2019-02-25T03:23:05.823Z,88.60
2019-02-25T03:27:22.259Z,88.90
2019-02-25T03:31:38.794Z,88.90
2019-02-25T03:35:55.306Z,88.90
2019-02-25T03:40:13.857Z,88.80
2019-02-25T03:44:30.372Z,89.00
2019-02-25T03:48:47.282Z,89.00
2019-02-25T03:53:03.820Z,88.90
2019-02-25T03:57:20.529Z,89.00
2019-02-25T04:01:37.224Z,89.10
2019-02-25T04:05:53.779Z,89.40
2019-02-25T04:10:12.190Z,89.90
2019-02-25T04:14:28.877Z,89.90
2019-02-25T04:18:45.469Z,90.20
2019-02-25T04:23:01.988Z,90.00
2019-02-25T04:27:18.534Z,90.00
2019-02-25T04:31:35.146Z,90.00
2019-02-25T04:35:51.958Z,90.00
2019-02-25T04:40:12.361Z,90.00
2019-02-25T04:44:29.218Z,90.00
2019-02-25T04:48:45.783Z,90.10
2019-02-25T04:53:02.323Z,90.20
2019-02-25T04:57:18.850Z,90.20
2019-02-25T05:01:35.338Z,90.30
2019-02-25T05:05:51.854Z,90.30
2019-02-25T05:10:10.580Z,90.40
2019-02-25T05:14:27.150Z,90.40
2019-02-25T05:18:43.652Z,90.40
2019-02-25T05:23:00.209Z,90.50
2019-02-25T05:27:16.890Z,90.60
2019-02-25T05:31:33.700Z,90.60
2019-02-25T05:35:50.122Z,90.70
2019-02-25T05:40:10.550Z,90.80
2019-02-25T05:44:27.065Z,90.70
2019-02-25T05:48:43.859Z,90.70
2019-02-25T05:53:00.386Z,90.70
2019-02-25T05:57:17.027Z,90.70
2019-02-25T06:01:33.422Z,90.70
2019-02-25T06:05:50.053Z,90.70
2019-02-25T06:10:08.563Z,90.80
2019-02-25T06:14:25.020Z,90.80
2019-02-25T06:18:41.526Z,90.80
2019-02-25T06:22:58.018Z,90.90
2019-02-25T06:27:14.465Z,91.00
2019-02-25T06:31:31.097Z,90.90
2019-02-25T06:35:47.590Z,90.90
2019-02-25T06:40:07.495Z,90.90
2019-02-25T06:44:24.521Z,90.90
2019-02-25T06:48:41.022Z,90.70
2019-02-25T06:52:57.581Z,90.60
2019-02-25T06:57:14.033Z,90.50
2019-02-25T07:01:30.506Z,90.40
2019-02-25T07:05:48.874Z,90.40
2019-02-25T07:10:08.874Z,90.40
2019-02-25T07:14:27.226Z,90.70
2019-02-25T07:18:48.572Z,90.40
2019-02-25T07:23:07.235Z,90.30
2019-02-25T07:27:34.738Z,90.60
2019-02-25T07:32:05.397Z,90.40
2019-02-25T07:36:40.563Z,90.50
2019-02-25T07:40:58.954Z,90.80
2019-02-25T07:45:17.617Z,90.50
2019-02-25T07:49:48.243Z,90.90
2019-02-25T07:54:15.495Z,90.70
2019-02-25T07:58:39.633Z,90.30
2019-02-25T08:03:17.364Z,90.20
2019-02-25T08:07:53.753Z,90.20
2019-02-25T08:12:12.182Z,88.40
2019-02-25T08:16:30.569Z,87.50
2019-02-25T08:20:52.322Z,85.70
2019-02-25T08:25:13.436Z,83.90
2019-02-25T08:29:46.790Z,82.20
2019-02-25T08:34:18.745Z,80.00
2019-02-25T08:38:37.278Z,78.00
2019-02-25T08:42:58.338Z,75.20
2019-02-25T08:47:19.421Z,74.20
2019-02-25T08:51:35.916Z,73.90
2019-02-25T08:55:52.463Z,73.60
2019-02-25T09:00:13.703Z,72.30
2019-02-25T09:04:30.239Z,69.80
2019-02-25T09:08:46.968Z,66.00
2019-02-25T09:13:03.477Z,63.10
2019-02-25T09:17:20.018Z,62.20
2019-02-25T09:21:36.633Z,59.90
2019-02-25T09:25:53.131Z,57.60
2019-02-25T09:30:13.460Z,55.70
2019-02-25T09:34:30.211Z,53.10
2019-02-25T09:38:46.760Z,50.50
